createdAt,value
2022-09-20T00:02:00.358Z,4.20
2022-09-20T00:04:28.070Z,5.28
2022-09-20T00:06:55.667Z,5.47
2022-09-20T00:09:24.728Z,5.50
2022-09-20T00:11:52.512Z,5.85
2022-09-20T00:14:20.198Z,8.00
2022-09-20T00:16:47.860Z,7.70
2022-09-20T00:19:19.891Z,5.15
2022-09-20T00:21:47.664Z,4.63
2022-09-20T00:24:15.335Z,6.87
2022-09-20T00:26:44.416Z,5.60
2022-09-20T00:29:12.721Z,5.43
2022-09-20T00:31:42.805Z,6.45
2022-09-20T00:34:25.472Z,3.80
2022-09-20T00:36:53.109Z,4.00
2022-09-20T00:39:20.784Z,5.03
2022-09-20T00:41:49.823Z,4.03
2022-09-20T00:44:54.926Z,3.72
2022-09-20T00:47:27.788Z,3.67
2022-09-20T00:49:59.047Z,4.50
2022-09-20T00:52:27.850Z,4.72
2022-09-20T00:54:56.211Z,5.10
2022-09-20T00:57:25.628Z,3.72
2022-09-20T00:59:53.831Z,5.68
2022-09-20T01:02:25.251Z,5.25
2022-09-20T01:04:53.063Z,4.23
2022-09-20T01:07:23.303Z,5.72
2022-09-20T01:09:51.205Z,6.15
2022-09-20T01:12:21.002Z,4.72
2022-09-20T01:14:51.871Z,5.82
2022-09-20T01:17:20.670Z,5.78
2022-09-20T01:19:52.658Z,3.90
2022-09-20T01:22:23.989Z,5.05
2022-09-20T01:24:59.188Z,3.40
2022-09-20T01:27:40.880Z,5.20
2022-09-20T01:30:10.355Z,6.93
2022-09-20T01:32:46.842Z,6.35
2022-09-20T01:35:16.027Z,5.38
2022-09-20T01:37:55.595Z,5.18
2022-09-20T01:40:28.033Z,5.18
2022-09-20T01:43:06.607Z,5.95
2022-09-20T01:45:34.487Z,7.73
2022-09-20T01:48:10.451Z,6.60
2022-09-20T01:50:48.158Z,4.07
2022-09-20T01:53:38.770Z,5.97
2022-09-20T01:56:17.270Z,5.53
2022-09-20T01:59:29.588Z,7.35
2022-09-20T02:02:10.654Z,4.18
2022-09-20T02:05:10.754Z,5.07
2022-09-20T02:07:57.841Z,6.72
2022-09-20T02:10:36.498Z,5.43
2022-09-20T02:13:05.473Z,5.38
2022-09-20T02:15:42.719Z,5.45
2022-09-20T02:18:22.320Z,6.15
2022-09-20T02:20:54.219Z,4.88
2022-09-20T02:23:29.309Z,6.35
2022-09-20T02:26:04.481Z,5.15
2022-09-20T02:28:41.881Z,5.35
2022-09-20T02:31:17.027Z,4.63
2022-09-20T02:34:03.521Z,6.93
2022-09-20T02:36:39.241Z,5.43
2022-09-20T02:39:12.386Z,7.07
2022-09-20T02:41:56.986Z,6.15
2022-09-20T02:44:39.747Z,7.05
2022-09-20T02:47:13.521Z,4.32
2022-09-20T02:49:53.972Z,5.88
2022-09-20T02:52:29.141Z,4.78
2022-09-20T02:55:04.646Z,5.70
2022-09-20T02:57:40.642Z,4.97
2022-09-20T03:00:12.114Z,6.10
2022-09-20T03:02:51.534Z,6.05
2022-09-20T03:05:25.460Z,6.03
2022-09-20T03:08:04.111Z,6.07
2022-09-20T03:10:37.049Z,6.45
2022-09-20T03:13:16.349Z,6.53
2022-09-20T03:15:53.906Z,5.97
2022-09-20T03:18:35.429Z,5.95
2022-09-20T03:21:12.688Z,5.53
2022-09-20T03:23:51.287Z,9.55
2022-09-20T03:26:31.649Z,5.68
2022-09-20T03:29:04.021Z,8.02
2022-09-20T03:31:44.082Z,5.00
2022-09-20T03:34:19.789Z,7.43
2022-09-20T03:37:00.278Z,4.70
2022-09-20T03:39:42.956Z,5.60
2022-09-20T03:42:17.073Z,4.88
2022-09-20T03:45:07.058Z,4.75
2022-09-20T03:47:55.581Z,4.50
2022-09-20T03:50:43.071Z,5.63
2022-09-20T03:53:50.587Z,5.68
2022-09-20T03:56:30.219Z,5.22
2022-09-20T03:59:10.927Z,6.70
2022-09-20T04:01:57.507Z,6.78
2022-09-20T04:04:29.375Z,4.07
2022-09-20T04:07:07.090Z,4.67
2022-09-20T04:09:57.194Z,6.30
2022-09-20T04:12:30.774Z,4.25
2022-09-20T04:15:06.987Z,5.90
2022-09-20T04:17:40.547Z,5.00
2022-09-20T04:20:16.568Z,4.25
2022-09-20T04:22:44.651Z,3.08
2022-09-20T04:25:17.865Z,5.65
2022-09-20T04:27:49.070Z,7.10
2022-09-20T04:30:20.046Z,6.65
2022-09-20T04:32:52.232Z,6.60
2022-09-20T04:35:48.541Z,4.57
2022-09-20T04:38:19.926Z,5.45
2022-09-20T04:41:07.126Z,3.85
2022-09-20T04:44:12.003Z,6.10
2022-09-20T04:47:16.444Z,7.40
2022-09-20T04:50:17.457Z,4.32
2022-09-20T04:53:19.791Z,6.88
2022-09-20T04:55:51.711Z,8.07
2022-09-20T04:58:47.999Z,6.72
2022-09-20T05:02:03.391Z,4.85
2022-09-20T05:05:09.510Z,5.80
2022-09-20T05:08:19.296Z,4.78
2022-09-20T05:11:09.679Z,5.57
2022-09-20T05:13:49.895Z,5.50
2022-09-20T05:16:23.183Z,4.47
2022-09-20T05:19:12.250Z,4.10
2022-09-20T05:21:51.256Z,5.63
2022-09-20T05:24:28.127Z,4.47
2022-09-20T05:27:06.207Z,5.57
2022-09-20T05:29:42.333Z,4.05
2022-09-20T05:32:18.347Z,5.22
2022-09-20T05:34:51.223Z,6.28
2022-09-20T05:37:29.854Z,5.28
2022-09-20T05:40:02.872Z,5.53
2022-09-20T05:42:38.002Z,3.35
2022-09-20T05:45:19.181Z,5.20
2022-09-20T05:47:53.713Z,3.78
2022-09-20T05:50:44.962Z,6.45
2022-09-20T05:53:35.067Z,5.70
2022-09-20T05:56:07.756Z,6.50
2022-09-20T05:58:51.186Z,4.60
2022-09-20T06:01:25.962Z,3.35
2022-09-20T06:03:56.600Z,6.28
2022-09-20T06:06:32.599Z,10.05
2022-09-20T06:09:12.886Z,4.93
2022-09-20T06:11:56.192Z,11.07
2022-09-20T06:14:36.269Z,10.35
2022-09-20T06:17:12.843Z,11.40
2022-09-20T06:19:45.491Z,9.75
2022-09-20T06:22:17.303Z,5.78
2022-09-20T06:24:48.700Z,6.63
2022-09-20T06:27:20.058Z,6.18
2022-09-20T06:29:53.354Z,8.25
2022-09-20T06:32:22.382Z,9.13
2022-09-20T06:34:50.045Z,9.30
2022-09-20T06:37:49.867Z,6.28
2022-09-20T06:40:50.026Z,5.40
2022-09-20T06:43:19.309Z,6.43
2022-09-20T06:45:48.357Z,6.57
2022-09-20T06:48:19.221Z,6.65
2022-09-20T06:50:46.937Z,4.35
2022-09-20T06:53:17.667Z,6.40
2022-09-20T06:55:45.610Z,5.70
2022-09-20T06:58:13.379Z,6.05
2022-09-20T07:00:41.028Z,4.97
2022-09-20T07:03:08.891Z,5.90
2022-09-20T07:05:38.847Z,8.90
2022-09-20T07:08:06.613Z,5.75
2022-09-20T07:10:35.138Z,5.80
2022-09-20T07:13:03.962Z,5.00
2022-09-20T07:15:32.989Z,4.40
2022-09-20T07:18:00.820Z,7.03
2022-09-20T07:20:28.807Z,7.97
2022-09-20T07:22:57.808Z,6.45
2022-09-20T07:25:25.448Z,5.80
2022-09-20T07:27:53.098Z,7.72
2022-09-20T07:30:21.445Z,5.60
2022-09-20T07:32:49.100Z,4.53
2022-09-20T07:35:17.026Z,3.97
2022-09-20T07:37:44.687Z,4.43
2022-09-20T07:40:14.660Z,4.47
2022-09-20T07:42:42.365Z,4.28
2022-09-20T07:45:12.818Z,6.03
2022-09-20T07:47:42.060Z,6.63
2022-09-20T07:50:11.666Z,3.67
2022-09-20T07:52:39.366Z,4.32
2022-09-20T07:55:07.661Z,6.43
2022-09-20T07:57:38.390Z,3.55
2022-09-20T08:00:08.239Z,6.78
2022-09-20T08:02:35.942Z,5.15
2022-09-20T08:05:04.798Z,4.63
2022-09-20T08:07:32.399Z,1.95
2022-09-20T08:10:00.179Z,4.27
2022-09-20T08:15:17.936Z,3.65
2022-09-20T08:17:48.675Z,3.05
2022-09-20T08:20:16.790Z,3.50
2022-09-20T08:22:49.826Z,4.95
2022-09-20T08:25:24.901Z,3.67
2022-09-20T08:27:54.164Z,4.22
2022-09-20T08:30:27.457Z,4.53
2022-09-20T08:32:55.781Z,2.08
2022-09-20T08:35:25.387Z,3.28
2022-09-20T08:37:55.944Z,3.35
2022-09-20T08:40:25.222Z,4.80
2022-09-20T08:42:53.459Z,2.40
2022-09-20T08:45:40.376Z,3.45
2022-09-20T08:48:14.431Z,2.80
2022-09-20T08:50:42.270Z,3.47
2022-09-20T08:53:13.630Z,3.60
2022-09-20T08:55:43.392Z,2.90
2022-09-20T08:58:12.316Z,2.70
2022-09-20T09:00:42.097Z,2.42
2022-09-20T09:03:13.767Z,2.75
2022-09-20T09:05:44.650Z,2.22
2022-09-20T09:08:16.563Z,2.58
2022-09-20T09:10:46.643Z,2.20
2022-09-20T09:13:23.556Z,2.33
2022-09-20T09:15:57.225Z,3.17
2022-09-20T09:18:33.429Z,2.97
2022-09-20T09:21:04.366Z,4.72
2022-09-20T09:23:41.035Z,2.05
2022-09-20T09:26:16.943Z,1.73
2022-09-20T09:28:44.615Z,1.80
2022-09-20T09:31:26.794Z,3.63
2022-09-20T09:33:56.010Z,3.85
2022-09-20T09:36:25.919Z,3.17
2022-09-20T09:39:16.146Z,3.50
2022-09-20T09:41:44.424Z,3.05
2022-09-20T09:44:21.089Z,2.88
2022-09-20T09:46:51.330Z,3.85
2022-09-20T09:49:21.500Z,2.05
2022-09-20T09:52:03.231Z,2.58
2022-09-20T09:54:36.539Z,2.88
2022-09-20T09:57:16.017Z,3.85
2022-09-20T10:00:03.929Z,2.28
2022-09-20T10:02:50.045Z,2.38
2022-09-20T10:05:21.956Z,2.20
2022-09-20T10:07:55.057Z,2.17
2022-09-20T10:10:29.099Z,2.65
2022-09-20T10:13:06.082Z,2.58
2022-09-20T10:15:39.011Z,4.80
2022-09-20T10:18:20.806Z,3.65
2022-09-20T10:20:59.831Z,5.75
2022-09-20T10:26:55.075Z,3.17
2022-09-20T10:29:32.069Z,3.58
2022-09-20T10:32:06.954Z,3.30
2022-09-20T10:34:57.577Z,3.05
2022-09-20T10:37:31.027Z,3.23
2022-09-20T10:40:06.906Z,1.92
2022-09-20T10:42:57.302Z,2.13
2022-09-20T10:46:03.414Z,2.60
2022-09-20T10:48:24.281Z,2.05
2022-09-20T10:50:58.086Z,3.60
2022-09-20T10:53:30.575Z,2.45
2022-09-20T10:56:08.166Z,6.65
2022-09-20T10:58:46.635Z,4.20
2022-09-20T11:01:20.139Z,3.22
2022-09-20T11:04:14.177Z,2.35
2022-09-20T11:07:32.747Z,2.90
2022-09-20T11:10:06.444Z,2.13
2022-09-20T11:12:39.579Z,3.30
2022-09-20T11:15:16.777Z,3.50
2022-09-20T11:17:49.318Z,5.17
2022-09-20T11:20:21.927Z,4.25
2022-09-20T11:22:53.741Z,3.90
2022-09-20T11:25:29.718Z,2.25
2022-09-20T11:28:00.111Z,3.50
2022-09-20T11:30:29.522Z,3.08
2022-09-20T11:33:03.230Z,4.10
2022-09-20T11:35:33.595Z,2.40
2022-09-20T11:38:11.144Z,5.05
2022-09-20T11:40:43.531Z,2.38
2022-09-20T11:43:12.116Z,3.58
2022-09-20T11:45:41.943Z,3.53
2022-09-20T11:48:13.996Z,3.53
2022-09-20T11:51:18.534Z,5.30
2022-09-20T11:53:56.503Z,2.72
2022-09-20T11:56:26.487Z,3.50
2022-09-20T11:58:56.391Z,3.45
2022-09-20T12:01:28.741Z,3.47
2022-09-20T12:04:14.533Z,4.40
2022-09-20T12:06:45.958Z,3.28
2022-09-20T12:09:25.253Z,4.30
2022-09-20T12:11:54.386Z,1.70
2022-09-20T12:14:25.759Z,5.90
2022-09-20T12:16:53.582Z,2.22
2022-09-20T12:19:38.900Z,1.38
2022-09-20T12:22:29.410Z,2.70
2022-09-20T12:25:37.190Z,2.10
2022-09-20T12:28:15.349Z,3.85
2022-09-20T12:30:43.029Z,3.60
2022-09-20T12:33:20.381Z,4.30
2022-09-20T12:36:21.086Z,2.78
2022-09-20T12:38:52.633Z,3.00
2022-09-20T12:41:28.368Z,2.17
2022-09-20T12:44:04.513Z,3.67
2022-09-20T12:46:35.994Z,2.38
2022-09-20T12:49:48.961Z,1.98
2022-09-20T12:52:52.475Z,3.03
2022-09-20T12:55:43.628Z,1.63
2022-09-20T12:58:26.867Z,2.78
2022-09-20T13:01:27.290Z,2.75
2022-09-20T13:04:34.831Z,2.53
2022-09-20T13:07:27.537Z,2.50
2022-09-20T13:09:55.518Z,4.13
2022-09-20T13:12:23.320Z,4.25
2022-09-20T13:14:52.400Z,3.17
2022-09-20T13:17:27.230Z,2.25
2022-09-20T13:19:57.097Z,4.43
2022-09-20T13:22:27.051Z,5.37
2022-09-20T13:24:58.820Z,4.88
2022-09-20T13:27:28.738Z,4.97
2022-09-20T13:29:56.495Z,3.53
2022-09-20T13:32:25.757Z,1.70
2022-09-20T13:35:08.038Z,3.40
2022-09-20T13:37:36.218Z,1.50
2022-09-20T13:40:05.104Z,3.55
2022-09-20T13:42:35.692Z,2.88
2022-09-20T13:45:04.277Z,4.38
2022-09-20T13:47:33.820Z,2.47
2022-09-20T13:50:02.563Z,4.85
2022-09-20T13:52:32.972Z,2.40
2022-09-20T13:55:01.089Z,2.95
2022-09-20T13:57:30.048Z,1.50
2022-09-20T13:59:58.269Z,2.53
2022-09-20T14:02:28.950Z,2.77
2022-09-20T14:04:57.818Z,1.95
2022-09-20T14:07:28.046Z,2.35
2022-09-20T14:09:58.305Z,2.13
2022-09-20T14:12:26.771Z,2.70
2022-09-20T14:14:54.501Z,2.45
2022-09-20T14:17:24.591Z,1.77
2022-09-20T14:19:54.467Z,3.03
2022-09-20T14:22:24.561Z,3.03
2022-09-20T14:25:02.592Z,1.75
2022-09-20T14:27:31.406Z,2.90
2022-09-20T14:29:59.547Z,1.60
2022-09-20T14:32:38.612Z,1.55
2022-09-20T14:35:09.260Z,2.58
2022-09-20T14:37:43.843Z,2.70
2022-09-20T14:40:22.751Z,5.50
2022-09-20T14:42:53.489Z,2.83
2022-09-20T14:45:24.380Z,2.88
2022-09-20T14:47:58.899Z,3.50
2022-09-20T14:50:28.943Z,2.22
2022-09-20T14:53:21.502Z,2.30
2022-09-20T14:56:10.465Z,3.72
2022-09-20T14:59:07.140Z,3.55
2022-09-20T15:01:35.791Z,2.97
2022-09-20T15:04:09.087Z,5.93
2022-09-20T15:06:38.957Z,4.75
2022-09-20T15:09:06.669Z,4.95
2022-09-20T15:11:35.746Z,2.60
2022-09-20T15:14:03.317Z,2.45
2022-09-20T15:16:31.457Z,3.83
2022-09-20T15:18:59.146Z,3.85
2022-09-20T15:21:26.959Z,2.92
2022-09-20T15:23:54.638Z,1.98
2022-09-20T15:26:22.349Z,3.35
2022-09-20T15:28:51.646Z,3.03
2022-09-20T15:31:20.003Z,2.60
2022-09-20T15:33:47.950Z,3.17
2022-09-20T15:36:15.524Z,2.92
2022-09-20T15:38:43.378Z,3.33
2022-09-20T15:41:11.078Z,3.85
2022-09-20T15:43:39.685Z,4.97
2022-09-20T15:46:19.052Z,3.95
2022-09-20T15:48:46.957Z,2.80
2022-09-20T15:51:15.229Z,4.78
2022-09-20T15:53:45.240Z,1.50
2022-09-20T15:56:17.335Z,2.70
2022-09-20T15:58:47.293Z,3.35
2022-09-20T16:01:17.570Z,2.33
2022-09-20T16:03:46.510Z,3.63
2022-09-20T16:06:15.190Z,2.33
2022-09-20T16:08:43.999Z,3.22
2022-09-20T16:11:14.200Z,3.13
2022-09-20T16:13:41.976Z,4.32
2022-09-20T16:16:13.000Z,3.72
2022-09-20T16:18:59.705Z,2.75
2022-09-20T16:21:27.394Z,2.28
2022-09-20T16:23:56.559Z,1.95
2022-09-20T16:26:25.446Z,2.22
2022-09-20T16:28:54.344Z,4.28
2022-09-20T16:31:34.394Z,2.08
2022-09-20T16:34:05.238Z,3.05
2022-09-20T16:36:33.245Z,3.13
2022-09-20T16:39:01.441Z,1.55
2022-09-20T16:41:55.676Z,4.47
2022-09-20T16:44:23.338Z,5.47
2022-09-20T16:46:51.348Z,7.00
2022-09-20T16:49:19.079Z,8.30
2022-09-20T16:51:47.352Z,5.53
2022-09-20T16:54:16.500Z,5.32
2022-09-20T16:56:45.346Z,4.68
2022-09-20T16:59:15.716Z,5.40
2022-09-20T17:01:43.898Z,5.07
2022-09-20T17:04:14.034Z,3.37
2022-09-20T17:06:43.262Z,2.47
2022-09-20T17:09:11.445Z,3.97
2022-09-20T17:11:41.146Z,3.50
2022-09-20T17:14:10.021Z,4.18
2022-09-20T17:17:51.126Z,2.10
2022-09-20T17:20:18.770Z,3.57
2022-09-20T17:22:46.395Z,2.63
2022-09-20T17:25:14.188Z,2.30
2022-09-20T17:27:41.899Z,3.95
2022-09-20T17:30:10.956Z,2.13
2022-09-20T17:32:38.598Z,2.42
2022-09-20T17:35:08.532Z,3.30
2022-09-20T17:37:36.392Z,3.28
2022-09-20T17:40:04.375Z,3.65
2022-09-20T17:42:33.761Z,4.97
2022-09-20T17:45:01.905Z,3.60
2022-09-20T17:47:29.537Z,2.58
2022-09-20T17:49:57.182Z,3.78
2022-09-20T17:52:26.222Z,2.67
2022-09-20T17:54:53.809Z,3.95
2022-09-20T17:57:21.445Z,7.22
2022-09-20T17:59:49.133Z,4.13
2022-09-20T18:02:16.877Z,5.45
2022-09-20T18:04:44.570Z,4.90
2022-09-20T18:07:12.202Z,4.00
2022-09-20T18:09:41.241Z,3.47
2022-09-20T18:12:10.345Z,5.78
2022-09-20T18:14:39.622Z,3.67
2022-09-20T18:17:07.225Z,3.72
2022-09-20T18:19:35.681Z,2.40
2022-09-20T18:22:04.065Z,2.97
2022-09-20T18:24:32.313Z,2.70
2022-09-20T18:27:01.616Z,2.42
2022-09-20T18:29:29.363Z,2.20
2022-09-20T18:31:57.953Z,2.75
2022-09-20T18:34:31.245Z,3.80
2022-09-20T18:37:01.134Z,3.42
2022-09-20T18:39:30.998Z,3.38
2022-09-20T18:41:59.929Z,2.83
2022-09-20T18:44:33.466Z,3.60
2022-09-20T18:47:02.811Z,4.30
2022-09-20T18:49:30.616Z,8.05
2022-09-20T18:51:58.320Z,8.97
2022-09-20T18:54:27.185Z,8.65
2022-09-20T18:56:55.306Z,8.13
2022-09-20T18:59:25.055Z,8.40
2022-09-20T19:02:14.595Z,11.45
2022-09-20T19:05:05.666Z,8.57
2022-09-20T19:07:42.064Z,7.93
2022-09-20T19:10:15.559Z,10.40
2022-09-20T19:12:48.295Z,6.60
2022-09-20T19:15:41.091Z,6.43
2022-09-20T19:18:27.838Z,3.70
2022-09-20T19:20:59.491Z,4.55
2022-09-20T19:23:42.878Z,4.75
2022-09-20T19:26:21.578Z,4.55
2022-09-20T19:28:50.103Z,5.75
2022-09-20T19:31:23.113Z,5.15
2022-09-20T19:33:54.864Z,6.18
2022-09-20T19:36:23.244Z,6.47
2022-09-20T19:38:59.213Z,4.15
2022-09-20T19:41:34.622Z,6.90
2022-09-20T19:44:14.903Z,7.43
2022-09-20T19:46:50.855Z,11.48
2022-09-20T19:49:24.679Z,17.38
2022-09-20T19:51:53.078Z,18.95
2022-09-20T19:54:21.189Z,17.40
2022-09-20T19:56:54.495Z,16.63
2022-09-20T19:59:23.748Z,13.63
2022-09-20T20:01:52.498Z,12.02
2022-09-20T20:04:22.374Z,12.75
2022-09-20T20:06:58.713Z,11.57
2022-09-20T20:09:33.832Z,10.88
2022-09-20T20:12:05.668Z,8.23
2022-09-20T20:14:40.498Z,9.38
2022-09-20T20:17:18.042Z,6.40
2022-09-20T20:19:57.010Z,7.13
2022-09-20T20:22:45.794Z,5.93
2022-09-20T20:25:20.633Z,7.15
2022-09-20T20:27:48.590Z,5.68
2022-09-20T20:30:16.332Z,5.15
2022-09-20T20:32:43.942Z,3.67
2022-09-20T20:35:13.921Z,4.70
2022-09-20T20:37:41.630Z,3.78
2022-09-20T20:40:12.125Z,4.20
2022-09-20T20:42:40.410Z,4.00
2022-09-20T20:45:08.744Z,5.07
2022-09-20T20:47:36.749Z,5.07
2022-09-20T20:50:04.552Z,5.50
2022-09-20T20:52:33.580Z,5.43
2022-09-20T20:55:01.379Z,5.03
2022-09-20T20:57:29.736Z,6.18
2022-09-20T20:59:57.446Z,9.27
2022-09-20T21:02:25.277Z,9.50
2022-09-20T21:04:52.894Z,9.27
2022-09-20T21:07:20.627Z,8.50
2022-09-20T21:09:49.660Z,8.23
2022-09-20T21:12:18.453Z,7.85
2022-09-20T21:14:46.036Z,6.65
2022-09-20T21:17:13.742Z,7.53
2022-09-20T21:19:41.363Z,7.43
2022-09-20T21:22:08.983Z,7.40
2022-09-20T21:24:36.626Z,7.80
2022-09-20T21:27:05.897Z,8.23
2022-09-20T21:29:33.521Z,8.32
2022-09-20T21:32:01.165Z,8.95
2022-09-20T21:34:28.919Z,14.20
2022-09-20T21:36:57.130Z,9.68
2022-09-20T21:39:24.919Z,9.73
2022-09-20T21:41:52.492Z,12.70
2022-09-20T21:44:21.482Z,9.50
2022-09-20T21:46:49.993Z,9.43
2022-09-20T21:49:17.793Z,8.85
2022-09-20T21:51:45.404Z,8.90
2022-09-20T21:54:13.112Z,8.82
2022-09-20T21:56:41.345Z,9.00
2022-09-20T21:59:09.438Z,7.63
2022-09-20T22:01:41.456Z,7.25
2022-09-20T22:04:10.408Z,7.03
2022-09-20T22:06:39.211Z,7.20
2022-09-20T22:09:08.637Z,9.25
2022-09-20T22:11:39.102Z,9.23
2022-09-20T22:14:07.414Z,11.60
2022-09-20T22:16:36.800Z,12.13
2022-09-20T22:19:07.738Z,10.20
2022-09-20T22:21:36.785Z,10.98
2022-09-20T22:24:06.223Z,8.93
2022-09-20T22:26:35.486Z,6.88
2022-09-20T22:29:03.688Z,8.05
2022-09-20T22:31:32.919Z,6.43
2022-09-20T22:34:02.052Z,6.90
2022-09-20T22:36:34.123Z,4.80
2022-09-20T22:39:02.164Z,4.60
2022-09-20T22:41:30.070Z,4.55
2022-09-20T22:43:57.983Z,3.90
2022-09-20T22:46:27.400Z,3.92
2022-09-20T22:48:55.513Z,6.00
2022-09-20T22:51:25.022Z,4.80
2022-09-20T22:53:54.643Z,3.43
2022-09-20T22:56:24.684Z,3.58
2022-09-20T22:58:54.135Z,4.18
2022-09-20T23:01:22.965Z,3.72
2022-09-20T23:03:56.066Z,4.47
2022-09-20T23:06:25.894Z,2.88
2022-09-20T23:08:56.745Z,5.78
2022-09-20T23:11:25.232Z,3.35
2022-09-20T23:13:55.793Z,3.03
2022-09-20T23:16:25.720Z,4.25
2022-09-20T23:18:55.758Z,2.90
2022-09-20T23:21:24.347Z,3.30
2022-09-20T23:23:55.944Z,2.45
2022-09-20T23:26:25.372Z,4.03
2022-09-20T23:28:55.801Z,5.57
2022-09-20T23:31:24.332Z,3.73
2022-09-20T23:33:53.914Z,3.38
2022-09-20T23:36:22.453Z,5.90
2022-09-20T23:38:50.790Z,3.78
2022-09-20T23:41:22.457Z,4.07
2022-09-20T23:43:50.325Z,3.93
2022-09-20T23:46:19.820Z,3.40
2022-09-20T23:48:47.844Z,2.10
2022-09-20T23:51:17.257Z,2.17
2022-09-20T23:53:45.451Z,2.20
2022-09-20T23:56:13.932Z,1.98
2022-09-20T23:58:45.107Z,2.60
